createdAt,value
2022-11-05T00:00:39.392Z,11.40
2022-11-05T00:01:39.429Z,11.50
2022-11-05T00:02:39.386Z,12.40
2022-11-05T00:03:39.425Z,12.40
2022-11-05T00:04:39.354Z,12.30
2022-11-05T00:05:39.341Z,11.50
2022-11-05T00:06:39.349Z,11.70
2022-11-05T00:07:39.319Z,12.40
2022-11-05T00:08:39.286Z,12.10
2022-11-05T00:09:39.297Z,11.80
2022-11-05T00:10:39.283Z,11.00
2022-11-05T00:11:39.269Z,11.70
2022-11-05T00:12:39.259Z,11.80
2022-11-05T00:13:39.259Z,11.40
2022-11-05T00:14:39.220Z,11.80
2022-11-05T00:15:39.223Z,12.20
2022-11-05T00:16:39.197Z,11.70
2022-11-05T00:17:39.214Z,11.90
2022-11-05T00:18:39.207Z,11.10
2022-11-05T00:19:39.163Z,11.00
2022-11-05T00:20:39.155Z,11.30
2022-11-05T00:21:39.160Z,11.20
2022-11-05T00:22:39.134Z,11.60
2022-11-05T00:23:39.191Z,11.60
2022-11-05T00:24:39.109Z,11.50
2022-11-05T00:25:39.099Z,12.00
2022-11-05T00:26:39.095Z,11.50
2022-11-05T00:27:39.074Z,11.70
2022-11-05T00:28:39.074Z,11.40
2022-11-05T00:29:39.094Z,11.00
2022-11-05T00:30:39.042Z,10.50
2022-11-05T00:31:39.029Z,10.90
2022-11-05T00:32:39.040Z,10.80
2022-11-05T00:33:39.007Z,12.20
2022-11-05T00:34:39.016Z,11.60
2022-11-05T00:35:39.014Z,12.80
2022-11-05T00:36:39.034Z,12.30
2022-11-05T00:37:38.980Z,11.60
2022-11-05T00:38:38.976Z,12.10
2022-11-05T00:39:38.960Z,11.60
2022-11-05T00:40:38.953Z,11.20
2022-11-05T00:41:38.918Z,12.00
2022-11-05T00:42:38.961Z,11.70
2022-11-05T00:43:38.936Z,12.20
2022-11-05T00:44:38.911Z,11.80
2022-11-05T00:45:38.881Z,11.90
2022-11-05T00:46:38.893Z,11.40
2022-11-05T00:47:38.882Z,11.70
2022-11-05T00:48:38.853Z,11.70
2022-11-05T00:49:38.843Z,10.80
2022-11-05T00:50:38.849Z,11.50
2022-11-05T00:51:38.826Z,11.00
2022-11-05T00:52:38.818Z,12.50
2022-11-05T00:53:38.784Z,10.80
2022-11-05T00:54:38.792Z,10.70
2022-11-05T00:55:38.805Z,10.90
2022-11-05T00:56:38.757Z,12.00
2022-11-05T00:57:38.789Z,12.20
2022-11-05T00:58:38.772Z,10.60
2022-11-05T00:59:38.718Z,13.30
2022-11-05T01:00:38.720Z,11.00
2022-11-05T01:01:38.837Z,10.90
2022-11-05T01:02:38.899Z,10.60
2022-11-05T01:03:38.687Z,11.30
2022-11-05T01:04:38.664Z,11.40
2022-11-05T01:05:38.653Z,12.10
2022-11-05T01:06:38.717Z,10.90
2022-11-05T01:07:38.662Z,11.50
2022-11-05T01:08:38.640Z,11.40
2022-11-05T01:09:38.609Z,10.30
2022-11-05T01:10:38.598Z,11.00
2022-11-05T01:11:38.632Z,11.60
2022-11-05T01:12:38.597Z,12.00
2022-11-05T01:13:38.566Z,10.20
2022-11-05T01:14:38.575Z,10.90
2022-11-05T01:15:38.542Z,11.60
2022-11-05T01:16:38.530Z,11.20
2022-11-05T01:17:38.528Z,11.20
2022-11-05T01:18:38.534Z,12.50
2022-11-05T01:19:38.510Z,10.80
2022-11-05T01:20:38.515Z,11.00
2022-11-05T01:21:38.480Z,10.50
2022-11-05T01:22:38.510Z,10.70
2022-11-05T01:23:38.461Z,10.30
2022-11-05T01:24:38.474Z,10.30
2022-11-05T01:25:38.442Z,10.80
2022-11-05T01:26:38.419Z,10.50
2022-11-05T01:27:38.445Z,10.40
2022-11-05T01:28:38.507Z,11.50
2022-11-05T01:29:38.404Z,10.60
2022-11-05T01:30:38.400Z,10.20
2022-11-05T01:31:38.408Z,10.20
2022-11-05T01:32:38.356Z,10.20
2022-11-05T01:33:38.340Z,9.70
2022-11-05T01:34:38.342Z,9.90
2022-11-05T01:35:38.344Z,11.00
2022-11-05T01:36:38.314Z,9.80
2022-11-05T01:37:38.340Z,9.90
2022-11-05T01:38:38.327Z,10.10
2022-11-05T01:39:38.275Z,10.10
2022-11-05T01:40:38.290Z,9.90
2022-11-05T01:41:38.267Z,9.90
2022-11-05T01:42:38.271Z,9.70
2022-11-05T01:43:38.420Z,10.00
2022-11-05T01:44:38.246Z,10.50
2022-11-05T01:45:38.207Z,10.00
2022-11-05T01:46:38.208Z,11.00
2022-11-05T01:47:38.227Z,11.60
2022-11-05T01:48:38.191Z,12.40
2022-11-05T01:49:38.162Z,12.10
2022-11-05T01:50:38.211Z,13.10
2022-11-05T01:51:38.143Z,12.20
2022-11-05T01:52:38.151Z,11.60
2022-11-05T01:53:38.145Z,11.10
2022-11-05T01:54:38.130Z,11.60
2022-11-05T01:55:38.095Z,12.10
2022-11-05T01:56:38.175Z,12.70
2022-11-05T01:57:38.083Z,10.50
2022-11-05T01:58:38.067Z,11.40
2022-11-05T01:59:38.082Z,13.20
2022-11-05T02:00:38.080Z,11.80
2022-11-05T02:01:38.212Z,11.30
2022-11-05T02:02:38.171Z,10.50
2022-11-05T02:03:38.029Z,9.80
2022-11-05T02:04:38.036Z,11.10
2022-11-05T02:05:38.015Z,11.90
2022-11-05T02:06:37.974Z,10.10
2022-11-05T02:07:37.963Z,10.00
2022-11-05T02:08:37.953Z,10.50
2022-11-05T02:09:37.967Z,11.10
2022-11-05T02:10:37.972Z,10.90
2022-11-05T02:11:37.939Z,10.90
2022-11-05T02:12:37.949Z,11.40
2022-11-05T02:13:37.894Z,10.30
2022-11-05T02:14:37.892Z,10.80
2022-11-05T02:15:37.918Z,10.40
2022-11-05T02:16:37.880Z,9.70
2022-11-05T02:17:37.879Z,9.60
2022-11-05T02:18:37.854Z,9.90
2022-11-05T02:19:37.828Z,10.20
2022-11-05T02:20:37.832Z,10.00
2022-11-05T02:21:37.824Z,10.20
2022-11-05T02:22:37.810Z,10.00
2022-11-05T02:23:37.822Z,12.40
2022-11-05T02:24:37.775Z,9.50
2022-11-05T02:25:37.764Z,9.80
2022-11-05T02:26:37.773Z,10.10
2022-11-05T02:27:37.777Z,10.10
2022-11-05T02:28:38.615Z,9.70
2022-11-05T02:29:37.717Z,9.60
2022-11-05T02:30:37.755Z,11.40
2022-11-05T02:31:37.712Z,12.00
2022-11-05T02:32:37.714Z,12.00
2022-11-05T02:33:37.700Z,11.20
2022-11-05T02:34:37.698Z,11.60
2022-11-05T02:35:37.709Z,12.40
2022-11-05T02:36:37.641Z,12.20
2022-11-05T02:37:37.644Z,12.40
2022-11-05T02:38:37.620Z,13.50
2022-11-05T02:39:37.674Z,13.30
2022-11-05T02:40:37.623Z,12.90
2022-11-05T02:41:37.650Z,12.30
2022-11-05T02:42:37.575Z,13.00
2022-11-05T02:43:37.582Z,12.50
2022-11-05T02:44:37.589Z,10.80
2022-11-05T02:45:37.562Z,11.80
2022-11-05T02:46:37.566Z,11.70
2022-11-05T02:47:37.554Z,11.10
2022-11-05T02:48:37.513Z,11.00
2022-11-05T02:49:37.522Z,10.90
2022-11-05T02:50:37.501Z,10.00
2022-11-05T02:51:37.542Z,10.10
2022-11-05T02:52:37.512Z,10.50
2022-11-05T02:53:37.534Z,11.00
2022-11-05T02:54:37.445Z,11.30
2022-11-05T02:55:37.436Z,11.40
2022-11-05T02:56:37.444Z,11.40
2022-11-05T02:57:37.428Z,12.30
2022-11-05T02:58:37.397Z,11.00
2022-11-05T02:59:37.456Z,11.10
2022-11-05T03:00:37.396Z,11.00
2022-11-05T03:01:37.497Z,10.00
2022-11-05T03:02:37.508Z,10.30
2022-11-05T03:03:37.355Z,10.50
2022-11-05T03:04:37.350Z,10.40
2022-11-05T03:05:37.330Z,10.00
2022-11-05T03:06:37.340Z,9.90
2022-11-05T03:07:37.306Z,11.10
2022-11-05T03:08:37.316Z,10.10
2022-11-05T03:09:37.331Z,9.90
2022-11-05T03:10:37.263Z,9.90
2022-11-05T03:11:37.274Z,11.10
2022-11-05T03:12:37.240Z,10.50
2022-11-05T03:13:37.249Z,10.50
2022-11-05T03:14:37.235Z,11.20
2022-11-05T03:15:37.225Z,10.80
2022-11-05T03:16:37.197Z,11.10
2022-11-05T03:17:37.262Z,10.40
2022-11-05T03:18:37.192Z,11.20
2022-11-05T03:19:37.207Z,10.50
2022-11-05T03:20:37.199Z,11.50
2022-11-05T03:21:37.142Z,12.00
2022-11-05T03:22:37.134Z,12.70
2022-11-05T03:23:37.155Z,10.80
2022-11-05T03:24:37.160Z,11.20
2022-11-05T03:25:37.108Z,14.20
2022-11-05T03:26:37.082Z,9.70
2022-11-05T03:27:37.072Z,11.40
2022-11-05T03:28:37.077Z,11.90
2022-11-05T03:29:37.100Z,10.90
2022-11-05T03:30:37.062Z,11.80
2022-11-05T03:31:37.047Z,11.50
2022-11-05T03:32:37.016Z,11.20
2022-11-05T03:33:37.005Z,10.00
2022-11-05T03:34:37.026Z,10.70
2022-11-05T03:35:37.011Z,10.50
2022-11-05T03:36:37.005Z,11.80
2022-11-05T03:37:36.986Z,11.30
2022-11-05T03:38:36.992Z,10.40
2022-11-05T03:39:36.946Z,10.60
2022-11-05T03:40:36.952Z,10.80
2022-11-05T03:41:36.932Z,11.10
2022-11-05T03:42:36.941Z,11.30
2022-11-05T03:43:36.895Z,10.30
2022-11-05T03:44:36.889Z,11.90
2022-11-05T03:45:36.885Z,11.20
2022-11-05T03:46:36.891Z,11.30
2022-11-05T03:47:36.880Z,12.20
2022-11-05T03:48:36.943Z,11.30
2022-11-05T03:49:36.842Z,12.00
2022-11-05T03:50:41.108Z,12.30
2022-11-05T03:51:36.841Z,12.20
2022-11-05T03:52:36.792Z,11.40
2022-11-05T03:53:36.810Z,12.00
2022-11-05T03:54:36.837Z,11.60
2022-11-05T03:55:36.768Z,12.70
2022-11-05T03:56:36.751Z,11.20
2022-11-05T03:57:36.761Z,10.90
2022-11-05T03:58:36.743Z,10.80
2022-11-05T03:59:36.753Z,10.40
2022-11-05T04:00:36.772Z,11.40
2022-11-05T04:01:36.904Z,11.60
2022-11-05T04:02:36.856Z,10.80
2022-11-05T04:03:36.782Z,11.70
2022-11-05T04:04:36.691Z,11.00
2022-11-05T04:05:36.683Z,11.10
2022-11-05T04:06:36.687Z,10.70
2022-11-05T04:07:36.644Z,10.50
2022-11-05T04:08:36.637Z,10.50
2022-11-05T04:09:36.655Z,10.40
2022-11-05T04:10:36.626Z,10.80
2022-11-05T04:11:36.629Z,11.10
2022-11-05T04:12:36.590Z,11.40
2022-11-05T04:13:36.562Z,12.60
2022-11-05T04:14:36.551Z,12.10
2022-11-05T04:15:36.556Z,11.60
2022-11-05T04:16:36.567Z,11.50
2022-11-05T04:17:36.557Z,11.20
2022-11-05T04:18:36.513Z,11.50
2022-11-05T04:19:36.493Z,11.70
2022-11-05T04:20:36.510Z,11.40
2022-11-05T04:21:36.501Z,12.00
2022-11-05T04:22:36.473Z,11.80
2022-11-05T04:23:36.465Z,11.40
2022-11-05T04:24:36.442Z,11.80
2022-11-05T04:25:36.499Z,12.30
2022-11-05T04:26:36.414Z,11.70
2022-11-05T04:27:36.438Z,12.80
2022-11-05T04:28:36.390Z,10.70
2022-11-05T04:29:36.380Z,11.10
2022-11-05T04:30:36.390Z,11.80
2022-11-05T04:31:36.376Z,10.70
2022-11-05T04:32:36.372Z,11.20
2022-11-05T04:33:36.378Z,9.90
2022-11-05T04:34:36.325Z,11.30
2022-11-05T04:35:36.314Z,11.90
2022-11-05T04:36:36.322Z,12.10
2022-11-05T04:37:36.349Z,12.60
2022-11-05T04:38:36.293Z,12.30
2022-11-05T04:39:36.382Z,11.10
2022-11-05T04:40:36.260Z,12.20
2022-11-05T04:41:36.271Z,12.70
2022-11-05T04:42:36.310Z,12.60
2022-11-05T04:43:36.349Z,12.00
2022-11-05T04:44:36.249Z,11.60
2022-11-05T04:45:36.205Z,14.40
2022-11-05T04:46:36.189Z,12.60
2022-11-05T04:47:36.184Z,13.20
2022-11-05T04:48:36.187Z,11.70
2022-11-05T04:49:36.205Z,11.30
2022-11-05T04:50:36.187Z,11.10
2022-11-05T04:51:36.135Z,12.40
2022-11-05T04:52:36.121Z,12.10
2022-11-05T04:53:36.116Z,12.80
2022-11-05T04:54:36.101Z,12.70
2022-11-05T04:55:36.172Z,11.90
2022-11-05T04:56:36.099Z,11.60
2022-11-05T04:57:36.068Z,11.70
2022-11-05T04:58:36.061Z,12.10
2022-11-05T04:59:36.053Z,11.70
2022-11-05T05:00:36.083Z,12.10
2022-11-05T05:01:36.150Z,13.20
2022-11-05T05:02:36.061Z,12.30
2022-11-05T05:03:36.004Z,11.90
2022-11-05T05:04:35.998Z,12.30
2022-11-05T05:05:35.999Z,12.30
2022-11-05T05:06:36.077Z,11.80
2022-11-05T05:07:36.000Z,12.30
2022-11-05T05:08:35.956Z,11.80
2022-11-05T05:09:35.937Z,13.70
2022-11-05T05:10:35.928Z,13.30
2022-11-05T05:11:35.962Z,12.10
2022-11-05T05:12:35.913Z,12.20
2022-11-05T05:13:35.927Z,12.10
2022-11-05T05:14:35.878Z,12.60
2022-11-05T05:15:35.884Z,14.20
2022-11-05T05:16:35.879Z,12.80
2022-11-05T05:17:35.845Z,15.00
2022-11-05T05:18:35.863Z,14.70
2022-11-05T05:19:35.874Z,12.60
2022-11-05T05:20:35.812Z,13.10
2022-11-05T05:21:35.807Z,13.50
2022-11-05T05:22:35.811Z,14.80
2022-11-05T05:23:35.810Z,14.70
2022-11-05T05:24:35.791Z,12.90
2022-11-05T05:25:35.800Z,12.60
2022-11-05T05:26:35.745Z,12.40
2022-11-05T05:27:35.754Z,11.90
2022-11-05T05:28:35.737Z,11.30
2022-11-05T05:29:35.756Z,12.10
2022-11-05T05:30:35.729Z,13.30
2022-11-05T05:31:35.694Z,14.70
2022-11-05T05:32:35.702Z,14.90
2022-11-05T05:33:35.670Z,14.10
2022-11-05T05:34:35.659Z,14.90
2022-11-05T05:35:35.661Z,16.20
2022-11-05T05:36:35.664Z,17.40
2022-11-05T05:37:35.679Z,15.20
2022-11-05T05:38:35.625Z,17.30
2022-11-05T05:39:35.622Z,16.00
2022-11-05T05:40:35.603Z,15.80
2022-11-05T05:41:35.604Z,16.90
2022-11-05T05:42:41.753Z,16.00
2022-11-05T05:43:36.600Z,14.80
2022-11-05T05:44:35.586Z,17.70
2022-11-05T05:45:35.542Z,16.10
2022-11-05T05:46:35.533Z,16.10
2022-11-05T05:47:35.531Z,18.00
2022-11-05T05:48:35.499Z,17.00
2022-11-05T05:49:35.542Z,15.30
2022-11-05T05:50:35.488Z,17.50
2022-11-05T05:51:35.468Z,19.50
2022-11-05T05:52:35.473Z,34.70
2022-11-05T05:53:35.467Z,49.80
2022-11-05T05:54:41.369Z,48.70
2022-11-05T05:55:36.451Z,39.90
2022-11-05T05:56:35.440Z,26.60
2022-11-05T05:57:35.408Z,26.60
2022-11-05T05:58:35.410Z,25.80
2022-11-05T05:59:35.399Z,27.80
2022-11-05T06:00:35.365Z,20.30
2022-11-05T06:01:35.513Z,21.30
2022-11-05T06:02:35.527Z,17.10
2022-11-05T06:03:35.382Z,16.20
2022-11-05T06:04:35.351Z,15.10
2022-11-05T06:05:35.313Z,13.90
2022-11-05T06:06:35.300Z,13.00
2022-11-05T06:07:37.398Z,13.00
2022-11-05T06:08:35.323Z,13.40
2022-11-05T06:09:35.282Z,12.20
2022-11-05T06:10:35.378Z,12.90
2022-11-05T06:11:35.246Z,12.50
2022-11-05T06:12:35.234Z,12.20
2022-11-05T06:13:35.232Z,12.10
2022-11-05T06:14:35.258Z,13.30
2022-11-05T06:15:36.217Z,12.40
2022-11-05T06:16:35.216Z,14.50
2022-11-05T06:17:35.181Z,13.20
2022-11-05T06:18:35.173Z,14.00
2022-11-05T06:19:35.186Z,13.20
2022-11-05T06:20:35.199Z,15.80
2022-11-05T06:21:35.162Z,14.70
2022-11-05T06:22:35.169Z,13.90
2022-11-05T06:23:35.113Z,13.80
2022-11-05T06:24:35.116Z,14.50
2022-11-05T06:25:40.888Z,15.20
2022-11-05T06:26:36.122Z,16.00
2022-11-05T06:27:35.091Z,14.90
2022-11-05T06:28:35.055Z,16.00
2022-11-05T06:29:35.048Z,15.10
2022-11-05T06:30:35.119Z,15.60
2022-11-05T06:31:35.038Z,18.30
2022-11-05T06:32:35.051Z,17.60
2022-11-05T06:33:35.028Z,17.20
2022-11-05T06:34:34.985Z,20.30
2022-11-05T06:35:35.000Z,16.20
2022-11-05T06:36:34.993Z,19.40
2022-11-05T06:37:35.003Z,17.10
2022-11-05T06:38:34.969Z,18.00
2022-11-05T06:39:34.969Z,16.60
2022-11-05T06:40:34.919Z,17.10
2022-11-05T06:41:41.470Z,16.80
2022-11-05T06:42:35.920Z,15.50
2022-11-05T06:43:34.899Z,19.80
2022-11-05T06:44:34.894Z,17.00
2022-11-05T06:45:34.911Z,17.00
2022-11-05T06:46:34.858Z,18.20
2022-11-05T06:47:34.884Z,20.40
2022-11-05T06:48:34.885Z,18.40
2022-11-05T06:49:34.839Z,19.20
2022-11-05T06:50:34.807Z,16.60
2022-11-05T06:51:34.801Z,18.50
2022-11-05T06:52:39.899Z,19.60
2022-11-05T06:53:35.788Z,17.90
2022-11-05T06:54:34.811Z,20.00
2022-11-05T06:55:34.780Z,18.00
2022-11-05T06:56:34.740Z,17.80
2022-11-05T06:57:34.801Z,18.50
2022-11-05T06:58:35.667Z,18.90
2022-11-05T06:59:34.743Z,17.80
2022-11-05T07:00:34.773Z,16.90
2022-11-05T07:01:34.875Z,17.60
2022-11-05T07:02:34.675Z,20.00
2022-11-05T07:03:34.724Z,17.90
2022-11-05T07:04:34.664Z,17.50
2022-11-05T07:05:34.683Z,21.60
2022-11-05T07:06:37.082Z,18.90
2022-11-05T07:07:34.639Z,16.30
2022-11-05T07:08:34.605Z,15.20
2022-11-05T07:09:34.609Z,18.20
2022-11-05T07:10:34.682Z,18.10
2022-11-05T07:11:34.586Z,16.70
2022-11-05T07:12:34.589Z,18.00
2022-11-05T07:13:34.587Z,15.60
2022-11-05T07:14:34.539Z,18.50
2022-11-05T07:15:34.609Z,17.90
2022-11-05T07:16:34.561Z,16.30
2022-11-05T07:17:34.521Z,14.50
2022-11-05T07:18:34.513Z,17.10
2022-11-05T07:19:34.505Z,15.30
2022-11-05T07:20:34.792Z,16.80
2022-11-05T07:21:34.692Z,16.60
2022-11-05T07:22:34.502Z,17.60
2022-11-05T07:23:34.458Z,14.60
2022-11-05T07:24:34.429Z,15.90
2022-11-05T07:25:34.418Z,15.70
2022-11-05T07:26:34.845Z,15.60
2022-11-05T07:27:34.426Z,15.90
2022-11-05T07:28:34.400Z,14.30
2022-11-05T07:29:34.400Z,14.40
2022-11-05T07:30:34.360Z,15.00
2022-11-05T07:31:34.349Z,15.90
2022-11-05T07:32:34.358Z,15.60
2022-11-05T07:33:36.657Z,15.10
2022-11-05T07:34:34.340Z,14.20
2022-11-05T07:35:34.405Z,12.90
2022-11-05T07:36:34.345Z,13.80
2022-11-05T07:37:34.282Z,14.20
2022-11-05T07:38:34.288Z,15.00
2022-11-05T07:39:34.262Z,16.20
2022-11-05T07:40:34.279Z,13.10
2022-11-05T07:41:34.269Z,14.40
2022-11-05T07:42:34.242Z,14.50
2022-11-05T07:43:34.227Z,14.60
2022-11-05T07:44:34.222Z,15.20
2022-11-05T07:45:34.241Z,14.00
2022-11-05T07:46:34.220Z,13.70
2022-11-05T07:47:34.172Z,13.40
2022-11-05T07:48:34.161Z,12.90
2022-11-05T07:49:34.167Z,15.00
2022-11-05T07:50:34.179Z,12.30
2022-11-05T07:51:34.159Z,13.20
2022-11-05T07:52:34.149Z,12.40
2022-11-05T07:53:34.103Z,14.50
2022-11-05T07:54:34.098Z,11.50
2022-11-05T07:55:34.106Z,11.40
2022-11-05T07:56:34.112Z,12.10
2022-11-05T07:57:34.080Z,11.00
2022-11-05T07:58:34.091Z,10.90
2022-11-05T07:59:34.037Z,11.80
2022-11-05T08:00:34.132Z,13.30
2022-11-05T08:01:34.248Z,12.20
2022-11-05T08:02:34.211Z,11.40
2022-11-05T08:03:34.260Z,13.00
2022-11-05T08:04:34.024Z,12.00
2022-11-05T08:05:33.973Z,11.70
2022-11-05T08:06:33.977Z,11.90
2022-11-05T08:07:34.065Z,11.90
2022-11-05T08:08:33.954Z,10.90
2022-11-05T08:09:33.927Z,11.10
2022-11-05T08:10:33.994Z,10.30
2022-11-05T08:11:33.908Z,10.90
2022-11-05T08:12:33.920Z,11.00
2022-11-05T08:13:33.930Z,10.80
2022-11-05T08:14:33.888Z,10.00
2022-11-05T08:15:33.856Z,10.50
2022-11-05T08:16:33.856Z,9.80
2022-11-05T08:17:33.849Z,10.50
2022-11-05T08:18:33.827Z,11.00
2022-11-05T08:19:33.861Z,9.70
2022-11-05T08:20:33.827Z,9.10
2022-11-05T08:21:33.801Z,9.40
2022-11-05T08:22:33.834Z,10.30
2022-11-05T08:23:33.786Z,9.50
2022-11-05T08:24:33.758Z,9.60
2022-11-05T08:25:33.802Z,10.10
2022-11-05T08:26:33.755Z,10.30
2022-11-05T08:27:33.729Z,10.80
2022-11-05T08:28:33.718Z,10.30
2022-11-05T08:29:33.726Z,10.80
2022-11-05T08:30:33.731Z,10.00
2022-11-05T08:31:33.697Z,9.10
2022-11-05T08:32:33.705Z,9.70
2022-11-05T08:33:33.667Z,10.10
2022-11-05T08:34:33.669Z,10.30
2022-11-05T08:35:33.632Z,8.90
2022-11-05T08:36:33.633Z,9.40
2022-11-05T08:37:33.638Z,9.80
2022-11-05T08:38:33.605Z,12.10
2022-11-05T08:39:33.653Z,9.90
2022-11-05T08:40:33.605Z,9.10
2022-11-05T08:41:33.566Z,9.30
2022-11-05T08:42:33.573Z,8.80
2022-11-05T08:43:33.565Z,8.60
2022-11-05T08:44:33.574Z,9.20
2022-11-05T08:45:33.531Z,8.80
2022-11-05T08:46:36.484Z,9.80
2022-11-05T08:47:34.532Z,9.70
2022-11-05T08:48:33.508Z,9.50
2022-11-05T08:49:33.477Z,9.60
2022-11-05T08:50:33.596Z,9.90
2022-11-05T08:51:33.482Z,9.80
2022-11-05T08:52:33.477Z,9.70
2022-11-05T08:53:33.444Z,11.40
2022-11-05T08:54:33.448Z,10.80
2022-11-05T08:55:33.473Z,11.40
2022-11-05T08:56:33.401Z,9.70
2022-11-05T08:57:33.404Z,9.90
2022-11-05T08:58:33.442Z,9.50
2022-11-05T08:59:33.380Z,10.20
2022-11-05T09:00:33.380Z,8.90
2022-11-05T09:01:33.534Z,9.60
2022-11-05T09:02:33.400Z,8.50
2022-11-05T09:03:33.335Z,9.80
2022-11-05T09:04:33.353Z,8.80
2022-11-05T09:05:33.321Z,8.80
2022-11-05T09:06:33.333Z,8.80
2022-11-05T09:07:33.278Z,9.10
2022-11-05T09:08:33.278Z,10.30
2022-11-05T09:09:33.284Z,10.80
2022-11-05T09:10:33.251Z,11.60
2022-11-05T09:11:57.409Z,10.70
2022-11-05T09:12:34.230Z,10.40
2022-11-05T09:13:33.283Z,10.10
2022-11-05T09:14:33.223Z,10.80
2022-11-05T09:15:33.195Z,12.00
2022-11-05T09:16:33.198Z,11.30
2022-11-05T09:17:33.198Z,11.50
2022-11-05T09:18:33.156Z,11.20
2022-11-05T09:19:36.673Z,11.30
2022-11-05T09:21:43.865Z,15.20
2022-11-05T09:22:43.883Z,10.90
2022-11-05T09:23:43.826Z,9.20
2022-11-05T09:24:43.821Z,9.00
2022-11-05T09:25:43.805Z,9.30
2022-11-05T09:26:43.821Z,9.20
2022-11-05T09:27:43.819Z,9.10
2022-11-05T09:28:43.827Z,9.90
2022-11-05T09:29:43.767Z,10.90
2022-11-05T09:30:43.794Z,9.40
2022-11-05T09:31:43.780Z,9.40
2022-11-05T09:32:43.744Z,9.00
2022-11-05T09:33:43.713Z,8.70
2022-11-05T09:34:43.701Z,9.70
2022-11-05T09:35:43.731Z,13.80
2022-11-05T09:36:44.508Z,13.50
2022-11-05T09:37:43.677Z,10.70
2022-11-05T09:38:43.673Z,10.30
2022-11-05T09:39:43.645Z,10.90
2022-11-05T09:40:43.638Z,10.00
2022-11-05T09:41:44.121Z,9.60
2022-11-05T09:42:43.629Z,9.40
2022-11-05T09:43:43.619Z,9.30
2022-11-05T09:44:43.585Z,9.10
2022-11-05T09:45:43.579Z,9.50
2022-11-05T09:46:43.569Z,11.90
2022-11-05T09:47:43.585Z,11.90
2022-11-05T09:48:43.548Z,10.90
2022-11-05T09:49:43.557Z,12.40
2022-11-05T09:50:43.519Z,11.80
2022-11-05T09:51:43.507Z,9.50
2022-11-05T09:52:43.496Z,8.80
2022-11-05T09:53:43.533Z,8.70
2022-11-05T09:54:43.487Z,27.00
2022-11-05T09:55:43.491Z,13.00
2022-11-05T09:56:43.501Z,16.20
2022-11-05T09:57:43.450Z,18.70
2022-11-05T09:58:43.469Z,10.80
2022-11-05T09:59:43.427Z,8.80
2022-11-05T10:00:43.518Z,7.50
2022-11-05T10:01:43.603Z,15.70
2022-11-05T10:02:43.497Z,11.10
2022-11-05T10:03:43.388Z,8.60
2022-11-05T10:04:43.365Z,8.90
2022-11-05T10:05:43.512Z,9.40
2022-11-05T10:06:43.364Z,8.20
2022-11-05T10:07:43.327Z,7.80
2022-11-05T10:08:43.324Z,8.10
2022-11-05T10:09:43.325Z,8.20
2022-11-05T10:10:43.332Z,8.60
2022-11-05T10:11:43.300Z,9.30
2022-11-05T10:12:43.271Z,10.50
2022-11-05T10:13:43.261Z,9.80
2022-11-05T10:14:43.284Z,9.00
2022-11-05T10:15:43.258Z,9.20
2022-11-05T10:16:43.234Z,9.50
2022-11-05T10:17:43.244Z,10.10
2022-11-05T10:18:43.205Z,10.60
2022-11-05T10:19:43.192Z,9.70
2022-11-05T10:20:43.182Z,10.20
2022-11-05T10:22:49.349Z,10.70
2022-11-05T10:23:44.206Z,9.70
2022-11-05T10:24:43.134Z,9.10
2022-11-05T10:25:43.127Z,10.90
2022-11-05T10:26:43.127Z,8.70
2022-11-05T10:27:43.149Z,10.50
2022-11-05T10:28:43.108Z,9.30
2022-11-05T10:29:43.113Z,10.10
2022-11-05T10:30:43.081Z,8.30
2022-11-05T10:31:43.059Z,8.70
2022-11-05T10:32:43.076Z,9.10
2022-11-05T10:33:43.040Z,8.60
2022-11-05T10:34:43.049Z,9.40
2022-11-05T10:35:43.055Z,8.90
2022-11-05T10:36:43.012Z,7.90
2022-11-05T10:37:43.007Z,8.40
2022-11-05T10:38:42.974Z,8.70
2022-11-05T10:39:42.982Z,10.70
2022-11-05T10:40:42.972Z,8.90
2022-11-05T10:41:42.986Z,8.90
2022-11-05T10:42:42.945Z,7.40
2022-11-05T10:43:42.940Z,7.80
2022-11-05T10:44:42.915Z,7.20
2022-11-05T10:45:42.918Z,7.60
2022-11-05T10:46:42.901Z,9.00
2022-11-05T10:47:42.891Z,7.50
2022-11-05T10:48:44.051Z,7.10
2022-11-05T10:49:42.884Z,7.10
2022-11-05T10:50:42.851Z,6.70
2022-11-05T10:51:42.860Z,7.40
2022-11-05T10:52:42.865Z,6.90
2022-11-05T10:53:42.816Z,6.60
2022-11-05T10:54:42.802Z,6.00
2022-11-05T10:55:42.785Z,7.20
2022-11-05T10:56:42.789Z,6.70
2022-11-05T10:57:42.794Z,7.00
2022-11-05T10:58:42.749Z,7.60
2022-11-05T10:59:42.750Z,6.80
2022-11-05T11:00:42.808Z,6.20
2022-11-05T11:01:42.828Z,6.20
2022-11-05T11:02:42.750Z,6.10
2022-11-05T11:03:42.738Z,6.10
2022-11-05T11:04:42.681Z,6.20
2022-11-05T11:05:42.689Z,6.20
2022-11-05T11:06:42.673Z,6.30
2022-11-05T11:07:42.658Z,5.70
2022-11-05T11:08:42.656Z,6.30
2022-11-05T11:09:42.629Z,6.30
2022-11-05T11:10:42.623Z,5.90
2022-11-05T11:11:42.608Z,5.60
2022-11-05T11:12:42.642Z,6.10
2022-11-05T11:13:42.608Z,6.10
2022-11-05T11:14:42.569Z,5.90
2022-11-05T11:15:42.572Z,6.00
2022-11-05T11:16:42.559Z,6.30
2022-11-05T11:17:42.568Z,6.50
2022-11-05T11:18:42.557Z,6.40
2022-11-05T11:19:42.543Z,6.70
2022-11-05T11:20:43.101Z,6.50
2022-11-05T11:21:42.493Z,6.70
2022-11-05T11:22:42.500Z,7.30
2022-11-05T11:23:42.507Z,29.80
2022-11-05T11:24:42.470Z,6.70
2022-11-05T11:25:42.484Z,6.90
2022-11-05T11:26:42.437Z,6.80
2022-11-05T11:27:42.431Z,7.30
2022-11-05T11:28:42.420Z,6.40
2022-11-05T11:29:48.048Z,6.80
2022-11-05T11:30:43.433Z,9.60
2022-11-05T11:31:42.422Z,17.50
2022-11-05T11:32:42.366Z,19.30
2022-11-05T11:33:42.359Z,17.00
2022-11-05T11:34:42.394Z,13.10
2022-11-05T11:35:42.341Z,9.00
2022-11-05T11:36:42.351Z,6.70
2022-11-05T11:37:42.397Z,11.20
2022-11-05T11:38:42.317Z,6.90
2022-11-05T11:39:42.297Z,5.90
2022-11-05T11:40:42.279Z,6.10
2022-11-05T11:41:42.284Z,5.70
2022-11-05T11:42:42.278Z,7.50
2022-11-05T11:43:42.293Z,6.00
2022-11-05T11:44:42.244Z,8.40
2022-11-05T11:45:42.229Z,17.10
2022-11-05T11:46:42.213Z,8.60
2022-11-05T11:47:42.222Z,5.80
2022-11-05T11:48:42.214Z,4.80
2022-11-05T11:49:42.179Z,4.70
2022-11-05T11:50:42.203Z,5.60
2022-11-05T11:51:42.156Z,5.80
2022-11-05T11:52:42.154Z,5.80
2022-11-05T11:53:42.159Z,7.10
2022-11-05T11:54:42.158Z,5.50
2022-11-05T11:55:42.114Z,7.80
2022-11-05T11:56:42.111Z,7.60
2022-11-05T11:57:42.094Z,8.00
2022-11-05T11:58:42.094Z,6.90
2022-11-05T12:00:07.107Z,6.00
2022-11-05T12:00:43.147Z,10.00
2022-11-05T12:01:42.102Z,8.20
2022-11-05T12:02:42.131Z,5.80
2022-11-05T12:03:42.067Z,5.50
2022-11-05T12:04:42.035Z,5.10
2022-11-05T12:05:41.998Z,6.90
2022-11-05T12:06:42.001Z,6.20
2022-11-05T12:07:41.992Z,7.80
2022-11-05T12:08:45.491Z,5.90
2022-11-05T12:09:41.962Z,6.00
2022-11-05T12:10:41.978Z,5.50
2022-11-05T12:11:41.931Z,5.80
2022-11-05T12:12:41.926Z,6.00
2022-11-05T12:13:41.914Z,6.20
2022-11-05T12:14:46.302Z,6.10
2022-11-05T12:15:41.902Z,5.70
2022-11-05T12:16:41.879Z,15.40
2022-11-05T12:17:41.862Z,8.10
2022-11-05T12:18:41.860Z,7.70
2022-11-05T12:19:41.870Z,8.80
2022-11-05T12:20:41.838Z,10.20
2022-11-05T12:21:52.585Z,12.10
2022-11-05T12:22:42.831Z,13.50
2022-11-05T12:23:41.796Z,12.90
2022-11-05T12:24:41.805Z,9.90
2022-11-05T12:25:41.774Z,12.50
2022-11-05T12:26:41.785Z,7.80
2022-11-05T12:27:41.771Z,9.10
2022-11-05T12:29:04.564Z,10.00
2022-11-05T12:29:42.757Z,9.50
2022-11-05T12:30:41.718Z,14.80
2022-11-05T12:31:41.717Z,12.70
2022-11-05T12:32:41.762Z,9.50
2022-11-05T12:33:41.708Z,10.80
2022-11-05T12:34:41.676Z,12.80
2022-11-05T12:35:47.399Z,9.40
2022-11-05T12:36:42.663Z,9.00
2022-11-05T12:37:41.643Z,17.10
2022-11-05T12:38:41.645Z,18.60
2022-11-05T12:39:41.623Z,15.70
2022-11-05T12:40:41.607Z,15.30
2022-11-05T12:41:41.593Z,12.20
2022-11-05T12:42:41.580Z,10.10
2022-11-05T12:43:41.589Z,8.00
2022-11-05T12:44:41.576Z,10.30
2022-11-05T12:45:41.550Z,13.20
2022-11-05T12:46:41.554Z,15.50
2022-11-05T12:47:41.531Z,27.50
2022-11-05T12:48:41.518Z,21.40
2022-11-05T12:49:41.527Z,10.60
2022-11-05T12:50:41.491Z,8.90
2022-11-05T12:51:41.493Z,8.30
2022-11-05T12:52:41.466Z,7.70
2022-11-05T12:53:41.458Z,8.00
2022-11-05T12:54:41.470Z,18.60
2022-11-05T12:55:47.075Z,9.50
2022-11-05T12:56:42.433Z,14.80
2022-11-05T12:57:41.423Z,15.50
2022-11-05T12:58:41.429Z,12.20
2022-11-05T12:59:41.391Z,11.60
2022-11-05T13:00:41.389Z,6.50
2022-11-05T13:01:41.459Z,5.60